createdAt,value
2017-12-02T00:00:00.775Z,931.1
2017-12-02T00:00:28.715Z,931.11
2017-12-02T00:00:56.858Z,931.18
2017-12-02T00:01:25.004Z,931.18
2017-12-02T00:01:53.166Z,931.2
2017-12-02T00:02:21.210Z,931.22
2017-12-02T00:02:49.396Z,931.2
2017-12-02T00:03:17.526Z,931.21
2017-12-02T00:03:45.670Z,931.24
2017-12-02T00:04:13.827Z,931.19
2017-12-02T00:04:41.880Z,931.22
2017-12-02T00:05:10.084Z,931.24
2017-12-02T00:05:38.237Z,931.3
2017-12-02T00:06:06.307Z,931.27
2017-12-02T00:06:34.369Z,931.26
2017-12-02T00:07:02.455Z,931.28
2017-12-02T00:07:30.628Z,931.31
2017-12-02T00:07:58.768Z,931.35
2017-12-02T00:08:26.910Z,931.32
2017-12-02T00:08:54.828Z,931.33
2017-12-02T00:09:22.965Z,931.32
2017-12-02T00:09:50.924Z,931.33
2017-12-02T00:10:19.046Z,931.36
2017-12-02T00:10:47.210Z,931.37
2017-12-02T00:11:15.166Z,931.39
2017-12-02T00:11:43.320Z,931.36
2017-12-02T00:12:11.472Z,931.38
2017-12-02T00:12:39.644Z,931.37
2017-12-02T00:13:07.831Z,931.36
2017-12-02T00:13:35.988Z,931.36
2017-12-02T00:14:04.042Z,931.37
2017-12-02T00:14:32.030Z,931.41
2017-12-02T00:15:00.169Z,931.44
2017-12-02T00:15:28.135Z,931.39
2017-12-02T00:15:56.096Z,931.48
2017-12-02T00:16:24.168Z,931.39
2017-12-02T00:16:52.215Z,931.44
2017-12-02T00:17:20.266Z,931.45
2017-12-02T00:17:48.310Z,931.46
2017-12-02T00:18:16.269Z,931.5
2017-12-02T00:18:44.408Z,931.51
2017-12-02T00:19:12.541Z,931.51
2017-12-02T00:19:40.634Z,931.53
2017-12-02T00:20:08.772Z,931.53
2017-12-02T00:20:36.909Z,931.52
2017-12-02T00:21:04.953Z,931.55
2017-12-02T00:21:33.015Z,931.55
2017-12-02T00:22:01.094Z,931.59
2017-12-02T00:22:29.152Z,931.59
2017-12-02T00:22:57.323Z,931.54
2017-12-02T00:23:25.480Z,931.57
2017-12-02T00:23:53.530Z,931.58
2017-12-02T00:24:21.480Z,931.58
2017-12-02T00:24:49.661Z,931.55
2017-12-02T00:25:17.830Z,931.53
2017-12-02T00:25:45.870Z,931.52
2017-12-02T00:26:14.005Z,931.6
2017-12-02T00:26:42.052Z,931.6
2017-12-02T00:27:10.227Z,931.59
2017-12-02T00:27:38.317Z,931.59
2017-12-02T00:28:06.498Z,931.59
2017-12-02T00:28:34.634Z,931.63
2017-12-02T00:29:02.677Z,931.59
2017-12-02T00:29:30.634Z,931.61
2017-12-02T00:29:58.813Z,931.62
2017-12-02T00:30:26.844Z,931.64
2017-12-02T00:30:55.006Z,931.64
2017-12-02T00:31:23.026Z,931.63
2017-12-02T00:31:51.030Z,931.63
2017-12-02T00:32:19.076Z,931.62
2017-12-02T00:32:47.290Z,931.63
2017-12-02T00:33:15.435Z,931.63
2017-12-02T00:33:43.646Z,931.67
2017-12-02T00:34:11.629Z,931.66
2017-12-02T00:34:39.795Z,931.68
2017-12-02T00:35:07.753Z,931.6
2017-12-02T00:35:35.673Z,931.64
2017-12-02T00:36:04.510Z,931.67
2017-12-02T00:36:32.798Z,931.68
2017-12-02T00:37:00.965Z,931.65
2017-12-02T00:37:29.116Z,931.67
2017-12-02T00:37:57.072Z,931.62
2017-12-02T00:38:25.158Z,931.71
2017-12-02T00:38:53.313Z,931.7
2017-12-02T00:39:21.465Z,931.69
2017-12-02T00:39:49.671Z,931.72
2017-12-02T00:40:17.838Z,931.69
2017-12-02T00:40:46.012Z,931.73
2017-12-02T00:41:14.141Z,931.73
2017-12-02T00:41:42.296Z,931.75
2017-12-02T00:42:10.336Z,931.76
2017-12-02T00:42:38.521Z,931.82
2017-12-02T00:43:06.685Z,931.79
2017-12-02T00:43:34.815Z,931.76
2017-12-02T00:44:03.032Z,931.77
2017-12-02T00:44:31.189Z,931.85
2017-12-02T00:44:59.355Z,931.78
2017-12-02T00:45:27.484Z,931.8
2017-12-02T00:45:55.515Z,931.78
2017-12-02T00:46:23.669Z,931.79
2017-12-02T00:46:51.712Z,931.79
2017-12-02T00:47:19.834Z,931.81
2017-12-02T00:47:47.903Z,931.74
2017-12-02T00:48:16.045Z,931.82
2017-12-02T00:48:44.182Z,931.8
2017-12-02T00:49:12.111Z,931.81
2017-12-02T00:49:40.183Z,931.8
2017-12-02T00:50:08.231Z,931.82
2017-12-02T00:50:36.189Z,931.78
2017-12-02T00:51:04.225Z,931.85
2017-12-02T00:51:32.479Z,931.81
2017-12-02T00:52:00.647Z,931.83
2017-12-02T00:52:28.776Z,931.81
2017-12-02T00:52:56.734Z,931.85
2017-12-02T00:53:24.889Z,931.78
2017-12-02T00:53:52.925Z,931.82
2017-12-02T00:54:20.866Z,931.83
2017-12-02T00:54:49.030Z,931.84
2017-12-02T00:55:17.146Z,931.85
2017-12-02T00:55:45.306Z,931.82
2017-12-02T00:56:13.444Z,931.83
2017-12-02T00:56:41.573Z,931.83
2017-12-02T00:57:09.614Z,931.82
2017-12-02T00:57:37.672Z,931.8
2017-12-02T00:58:05.863Z,931.83
2017-12-02T00:58:33.925Z,931.86
2017-12-02T00:59:02.075Z,931.81
2017-12-02T00:59:30.109Z,931.84
2017-12-02T00:59:58.247Z,931.83
2017-12-02T01:00:26.310Z,931.85
2017-12-02T01:00:54.282Z,931.81
2017-12-02T01:01:22.322Z,931.85
2017-12-02T01:01:50.241Z,931.82
2017-12-02T01:02:18.377Z,931.85
2017-12-02T01:02:46.457Z,931.84
2017-12-02T01:03:14.642Z,931.81
2017-12-02T01:03:42.806Z,931.81
2017-12-02T01:04:10.849Z,931.8
2017-12-02T01:04:38.902Z,931.84
2017-12-02T01:05:07.023Z,931.8
2017-12-02T01:05:35.073Z,931.78
2017-12-02T01:06:03.211Z,931.87
2017-12-02T01:06:31.178Z,931.85
2017-12-02T01:06:59.336Z,931.8
2017-12-02T01:07:27.441Z,931.79
2017-12-02T01:07:55.587Z,931.83
2017-12-02T01:08:23.654Z,931.85
2017-12-02T01:08:51.701Z,931.88
2017-12-02T01:09:19.732Z,931.84
2017-12-02T01:09:47.781Z,931.88
2017-12-02T01:10:15.885Z,931.84
2017-12-02T01:10:43.944Z,931.87
2017-12-02T01:11:11.985Z,931.86
2017-12-02T01:11:40.041Z,931.87
2017-12-02T01:12:08.107Z,931.88
2017-12-02T01:12:36.248Z,931.88
2017-12-02T01:13:04.193Z,931.86
2017-12-02T01:13:32.380Z,931.86
2017-12-02T01:14:00.923Z,931.88
2017-12-02T01:14:29.546Z,931.87
2017-12-02T01:14:58.130Z,931.94
2017-12-02T01:15:26.493Z,931.85
2017-12-02T01:15:55.261Z,931.9
2017-12-02T01:16:23.880Z,931.88
2017-12-02T01:16:52.279Z,931.92
2017-12-02T01:17:20.798Z,931.93
2017-12-02T01:17:49.431Z,931.94
2017-12-02T01:18:17.954Z,931.92
2017-12-02T01:18:46.352Z,931.91
2017-12-02T01:19:14.866Z,931.93
2017-12-02T01:19:43.483Z,931.97
2017-12-02T01:20:12.084Z,931.95
2017-12-02T01:20:40.582Z,931.98
2017-12-02T01:21:09.179Z,931.95
2017-12-02T01:21:37.761Z,931.94
2017-12-02T01:22:06.474Z,931.93
2017-12-02T01:22:34.951Z,931.95
2017-12-02T01:23:03.551Z,931.96
2017-12-02T01:23:32.184Z,931.92
2017-12-02T01:24:00.813Z,931.97
2017-12-02T01:24:29.308Z,931.95
2017-12-02T01:24:57.717Z,931.98
2017-12-02T01:25:26.315Z,931.97
2017-12-02T01:25:54.928Z,931.95
2017-12-02T01:26:23.564Z,931.96
2017-12-02T01:26:52.315Z,931.96
2017-12-02T01:27:20.885Z,931.91
2017-12-02T01:27:49.500Z,931.99
2017-12-02T01:28:18.113Z,931.87
2017-12-02T01:28:46.686Z,931.94
2017-12-02T01:29:15.274Z,931.95
2017-12-02T01:29:43.875Z,931.96
2017-12-02T01:30:12.365Z,931.97
2017-12-02T01:30:40.969Z,931.99
2017-12-02T01:31:09.486Z,931.98
2017-12-02T01:31:38.014Z,931.96
2017-12-02T01:32:06.804Z,931.99
2017-12-02T01:32:35.402Z,931.98
2017-12-02T01:33:04.724Z,931.96
2017-12-02T01:33:33.312Z,932
2017-12-02T01:34:01.935Z,931.95
2017-12-02T01:34:30.488Z,931.94
2017-12-02T01:34:59.105Z,931.97
2017-12-02T01:35:27.595Z,931.96
2017-12-02T01:35:56.122Z,931.94
2017-12-02T01:36:24.729Z,931.97
2017-12-02T01:36:53.451Z,931.99
2017-12-02T01:37:21.987Z,931.99
2017-12-02T01:37:50.597Z,932.01
2017-12-02T01:38:19.207Z,932.02
2017-12-02T01:38:47.788Z,932
2017-12-02T01:39:16.289Z,931.98
2017-12-02T01:39:44.670Z,931.99
2017-12-02T01:40:13.295Z,931.96
2017-12-02T01:40:41.797Z,931.93
2017-12-02T01:41:10.306Z,931.93
2017-12-02T01:41:38.742Z,931.94
2017-12-02T01:42:08.068Z,931.93
2017-12-02T01:42:36.568Z,931.91
2017-12-02T01:43:05.176Z,931.92
2017-12-02T01:43:33.803Z,931.91
2017-12-02T01:44:02.407Z,931.9
2017-12-02T01:44:31.017Z,931.94
2017-12-02T01:44:59.625Z,931.9
2017-12-02T01:45:28.119Z,931.9
2017-12-02T01:45:56.722Z,931.91
2017-12-02T01:46:25.320Z,931.91
2017-12-02T01:46:53.913Z,931.89
2017-12-02T01:47:22.521Z,931.91
2017-12-02T01:47:51.022Z,931.95
2017-12-02T01:48:19.623Z,931.86
2017-12-02T01:48:48.198Z,931.93
2017-12-02T01:49:16.695Z,931.86
2017-12-02T01:49:45.271Z,931.87
2017-12-02T01:50:13.913Z,931.86
2017-12-02T01:50:42.511Z,931.86
2017-12-02T01:51:11.117Z,931.9
2017-12-02T01:51:39.715Z,931.89
2017-12-02T01:52:08.223Z,931.89
2017-12-02T01:52:36.816Z,931.89
2017-12-02T01:53:05.219Z,931.87
2017-12-02T01:53:33.740Z,931.88
2017-12-02T01:54:02.330Z,931.86
2017-12-02T01:54:30.943Z,931.87
2017-12-02T01:54:59.569Z,931.9
2017-12-02T01:55:28.086Z,931.91
2017-12-02T01:55:56.691Z,931.88
2017-12-02T01:56:25.215Z,931.91
2017-12-02T01:56:53.727Z,931.87
2017-12-02T01:57:22.212Z,931.92
2017-12-02T01:57:50.804Z,931.88
2017-12-02T01:58:19.430Z,931.95
2017-12-02T01:58:48.043Z,931.93
2017-12-02T01:59:16.620Z,931.93
2017-12-02T01:59:45.147Z,931.93
2017-12-02T02:00:13.725Z,931.92
2017-12-02T02:00:42.247Z,931.95
2017-12-02T02:01:11.294Z,931.89
2017-12-02T02:01:40.009Z,931.91
2017-12-02T02:02:08.544Z,931.92
2017-12-02T02:02:36.933Z,931.9
2017-12-02T02:03:05.412Z,931.91
2017-12-02T02:03:34.027Z,931.92
2017-12-02T02:04:02.421Z,931.9
2017-12-02T02:04:30.934Z,931.88
2017-12-02T02:04:59.512Z,931.9
2017-12-02T02:05:28.123Z,931.9
2017-12-02T02:05:56.608Z,931.86
2017-12-02T02:06:25.206Z,931.92
2017-12-02T02:06:53.829Z,931.83
2017-12-02T02:07:22.542Z,931.88
2017-12-02T02:07:51.007Z,931.87
2017-12-02T02:08:19.513Z,931.87
2017-12-02T02:08:48.117Z,931.85
2017-12-02T02:09:16.697Z,931.89
2017-12-02T02:09:45.320Z,931.8
2017-12-02T02:10:13.822Z,931.86
2017-12-02T02:10:42.427Z,931.82
2017-12-02T02:11:10.906Z,931.82
2017-12-02T02:11:39.484Z,931.8
2017-12-02T02:12:08.068Z,931.81
2017-12-02T02:12:36.577Z,931.8
2017-12-02T02:13:05.055Z,931.83
2017-12-02T02:13:33.635Z,931.82
2017-12-02T02:14:02.233Z,931.85
2017-12-02T02:14:30.817Z,931.82
2017-12-02T02:14:59.423Z,931.86
2017-12-02T02:15:28.019Z,931.82
2017-12-02T02:15:56.664Z,931.79
2017-12-02T02:16:25.262Z,931.8
2017-12-02T02:16:53.856Z,931.83
2017-12-02T02:17:22.355Z,931.81
2017-12-02T02:17:50.954Z,931.84
2017-12-02T02:18:19.460Z,931.81
2017-12-02T02:18:48.050Z,931.8
2017-12-02T02:19:16.674Z,931.73
2017-12-02T02:19:45.178Z,931.79
2017-12-02T02:20:13.677Z,931.74
2017-12-02T02:20:42.275Z,931.78
2017-12-02T02:21:10.763Z,931.75
2017-12-02T02:21:39.244Z,931.71
2017-12-02T02:22:07.635Z,931.75
2017-12-02T02:22:36.334Z,931.74
2017-12-02T02:23:04.914Z,931.72
2017-12-02T02:23:33.451Z,931.7
2017-12-02T02:24:01.981Z,931.68
2017-12-02T02:24:30.537Z,931.72
2017-12-02T02:24:59.172Z,931.65
2017-12-02T02:25:27.793Z,931.69
2017-12-02T02:25:56.365Z,931.67
2017-12-02T02:26:24.961Z,931.65
2017-12-02T02:26:53.444Z,931.67
2017-12-02T02:27:22.053Z,931.62
2017-12-02T02:27:50.562Z,931.66
2017-12-02T02:28:19.177Z,931.61
2017-12-02T02:28:47.700Z,931.61
2017-12-02T02:29:16.331Z,931.62
2017-12-02T02:29:44.925Z,931.65
2017-12-02T02:30:13.541Z,931.61
2017-12-02T02:30:42.170Z,931.62
2017-12-02T02:31:10.651Z,931.63
2017-12-02T02:31:39.283Z,931.54
2017-12-02T02:32:07.918Z,931.58
2017-12-02T02:32:36.588Z,931.54
2017-12-02T02:33:05.378Z,931.51
2017-12-02T02:33:33.988Z,931.57
2017-12-02T02:34:02.567Z,931.59
2017-12-02T02:34:31.176Z,931.59
2017-12-02T02:34:59.693Z,931.59
2017-12-02T02:35:28.220Z,931.62
2017-12-02T02:35:56.851Z,931.61
2017-12-02T02:36:25.450Z,931.67
2017-12-02T02:36:54.026Z,931.63
2017-12-02T02:37:22.494Z,931.63
2017-12-02T02:37:50.988Z,931.61
2017-12-02T02:38:19.478Z,931.63
2017-12-02T02:38:48.293Z,931.66
2017-12-02T02:39:16.891Z,931.65
2017-12-02T02:39:45.479Z,931.65
2017-12-02T02:40:13.978Z,931.65
2017-12-02T02:40:42.542Z,931.61
2017-12-02T02:41:11.055Z,931.64
2017-12-02T02:41:39.649Z,931.6
2017-12-02T02:42:07.879Z,931.61
2017-12-02T02:42:36.517Z,931.58
2017-12-02T02:43:05.147Z,931.58
2017-12-02T02:43:33.651Z,931.58
2017-12-02T02:44:02.270Z,931.57
2017-12-02T02:44:30.898Z,931.53
2017-12-02T02:44:59.485Z,931.58
2017-12-02T02:45:28.016Z,931.57
2017-12-02T02:45:56.613Z,931.55
2017-12-02T02:46:25.243Z,931.55
2017-12-02T02:46:53.851Z,931.46
2017-12-02T02:47:22.351Z,931.5
2017-12-02T02:47:50.949Z,931.52
2017-12-02T02:48:19.555Z,931.51
2017-12-02T02:48:48.168Z,931.49
2017-12-02T02:49:16.689Z,931.5
2017-12-02T02:49:45.313Z,931.49
2017-12-02T02:50:13.818Z,931.48
2017-12-02T02:50:42.336Z,931.46
2017-12-02T02:51:10.824Z,931.48
2017-12-02T02:51:39.325Z,931.47
2017-12-02T02:52:07.830Z,931.42
2017-12-02T02:52:36.606Z,931.44
2017-12-02T02:53:05.188Z,931.39
2017-12-02T02:53:33.768Z,931.46
2017-12-02T02:54:02.376Z,931.37
2017-12-02T02:54:30.959Z,931.39
2017-12-02T02:54:59.570Z,931.4
2017-12-02T02:55:28.075Z,931.38
2017-12-02T02:55:56.671Z,931.41
2017-12-02T02:56:25.264Z,931.43
2017-12-02T02:56:53.889Z,931.42
2017-12-02T02:57:22.528Z,931.41
2017-12-02T02:57:51.021Z,931.38
2017-12-02T02:58:19.548Z,931.42
2017-12-02T02:58:48.145Z,931.39
2017-12-02T02:59:16.749Z,931.4
2017-12-02T02:59:45.344Z,931.37
2017-12-02T03:00:13.832Z,931.38
2017-12-02T03:00:42.373Z,931.39
2017-12-02T03:01:10.989Z,931.34
2017-12-02T03:01:39.633Z,931.3
2017-12-02T03:02:08.147Z,931.35
2017-12-02T03:02:36.656Z,931.32
2017-12-02T03:03:05.191Z,931.33
2017-12-02T03:03:33.813Z,931.33
2017-12-02T03:04:02.335Z,931.32
2017-12-02T03:04:30.847Z,931.33
2017-12-02T03:04:59.440Z,931.35
2017-12-02T03:05:27.838Z,931.35
2017-12-02T03:05:56.309Z,931.33
2017-12-02T03:06:24.880Z,931.27
2017-12-02T03:06:53.465Z,931.28
2017-12-02T03:07:22.080Z,931.29
2017-12-02T03:07:50.850Z,931.28
2017-12-02T03:08:19.366Z,931.29
2017-12-02T03:08:47.884Z,931.3
2017-12-02T03:09:16.466Z,931.28
2017-12-02T03:09:44.763Z,931.27
2017-12-02T03:10:13.372Z,931.32
2017-12-02T03:10:41.922Z,931.27
2017-12-02T03:11:10.414Z,931.31
2017-12-02T03:11:38.955Z,931.25
2017-12-02T03:12:07.545Z,931.24
2017-12-02T03:12:36.166Z,931.26
2017-12-02T03:13:04.558Z,931.21
2017-12-02T03:13:33.165Z,931.24
2017-12-02T03:14:01.765Z,931.27
2017-12-02T03:14:30.380Z,931.22
2017-12-02T03:14:58.941Z,931.17
2017-12-02T03:15:27.430Z,931.2
2017-12-02T03:15:55.945Z,931.17
2017-12-02T03:16:24.568Z,931.14
2017-12-02T03:16:53.147Z,931.14
2017-12-02T03:17:21.771Z,931.14
2017-12-02T03:17:50.397Z,931.17
2017-12-02T03:18:18.896Z,931.12
2017-12-02T03:18:47.404Z,931.12
2017-12-02T03:19:15.910Z,931.06
2017-12-02T03:19:44.498Z,931.11
2017-12-02T03:20:13.096Z,931.09
2017-12-02T03:20:41.693Z,931.09
2017-12-02T03:21:10.312Z,931.12
2017-12-02T03:21:38.899Z,931.12
2017-12-02T03:22:07.521Z,931.1
2017-12-02T03:22:36.132Z,931.08
2017-12-02T03:23:04.764Z,931.12
2017-12-02T03:23:33.318Z,931.08
2017-12-02T03:24:01.798Z,931.12
2017-12-02T03:24:30.316Z,931.13
2017-12-02T03:24:58.929Z,931.1
2017-12-02T03:25:27.490Z,931.13
2017-12-02T03:25:56.083Z,931.08
2017-12-02T03:26:24.687Z,931.12
2017-12-02T03:26:53.152Z,931.13
2017-12-02T03:27:21.722Z,931.08
2017-12-02T03:27:50.351Z,931.07
2017-12-02T03:28:18.967Z,931.11
2017-12-02T03:28:47.369Z,931.14
2017-12-02T03:29:15.866Z,931.08
2017-12-02T03:29:44.454Z,931.06
2017-12-02T03:30:13.059Z,931.15
2017-12-02T03:30:41.437Z,931.07
2017-12-02T03:31:09.945Z,931.06
2017-12-02T03:31:38.561Z,931.07
2017-12-02T03:32:07.147Z,931.03
2017-12-02T03:32:35.636Z,931.07
2017-12-02T03:33:04.159Z,931.1
2017-12-02T03:33:32.764Z,931.07
2017-12-02T03:34:01.369Z,931.11
2017-12-02T03:34:29.767Z,931.03
2017-12-02T03:34:58.377Z,931.06
2017-12-02T03:35:26.997Z,930.97
2017-12-02T03:35:55.623Z,931
2017-12-02T03:36:24.232Z,930.96
2017-12-02T03:36:52.616Z,930.96
2017-12-02T03:37:21.113Z,931.01
2017-12-02T03:37:49.685Z,930.97
2017-12-02T03:38:18.587Z,930.94
2017-12-02T03:38:47.022Z,930.97
2017-12-02T03:39:15.530Z,930.91
2017-12-02T03:39:44.147Z,930.95
2017-12-02T03:40:12.665Z,930.9
2017-12-02T03:40:41.243Z,930.92
2017-12-02T03:41:09.818Z,930.86
2017-12-02T03:41:38.460Z,930.88
2017-12-02T03:42:07.048Z,930.89
2017-12-02T03:42:35.641Z,930.83
2017-12-02T03:43:04.234Z,930.88
2017-12-02T03:43:32.876Z,930.91
2017-12-02T03:44:01.361Z,930.85
2017-12-02T03:44:29.964Z,930.87
2017-12-02T03:44:58.474Z,930.87
2017-12-02T03:45:27.052Z,930.9
2017-12-02T03:45:55.627Z,930.87
2017-12-02T03:46:24.135Z,930.87
2017-12-02T03:46:52.656Z,930.81
2017-12-02T03:47:21.163Z,930.84
2017-12-02T03:47:49.796Z,930.82
2017-12-02T03:48:18.221Z,930.79
2017-12-02T03:48:46.837Z,930.8
2017-12-02T03:49:15.330Z,930.76
2017-12-02T03:49:43.852Z,930.77
2017-12-02T03:50:12.466Z,930.79
2017-12-02T03:50:40.989Z,930.81
2017-12-02T03:51:09.617Z,930.8
2017-12-02T03:51:38.322Z,930.76
2017-12-02T03:52:06.935Z,930.76
2017-12-02T03:52:35.472Z,930.76
2017-12-02T03:53:04.055Z,930.72
2017-12-02T03:53:32.808Z,930.73
2017-12-02T03:54:01.422Z,930.75
2017-12-02T03:54:29.944Z,930.74
2017-12-02T03:54:58.537Z,930.76
2017-12-02T03:55:26.989Z,930.72
2017-12-02T03:55:55.589Z,930.75
2017-12-02T03:56:24.190Z,930.77
2017-12-02T03:56:52.703Z,930.76
2017-12-02T03:57:21.241Z,930.75
2017-12-02T03:57:49.860Z,930.75
2017-12-02T03:58:18.566Z,930.8
2017-12-02T03:58:47.178Z,930.76
2017-12-02T03:59:15.684Z,930.78
2017-12-02T03:59:44.299Z,930.77
2017-12-02T04:00:12.918Z,930.75
2017-12-02T04:00:41.538Z,930.81
2017-12-02T04:01:10.043Z,930.8
2017-12-02T04:01:38.666Z,930.78
2017-12-02T04:02:07.156Z,930.8
2017-12-02T04:02:35.687Z,930.75
2017-12-02T04:03:04.195Z,930.77
2017-12-02T04:03:32.784Z,930.76
2017-12-02T04:04:01.258Z,930.72
2017-12-02T04:04:29.567Z,930.74
2017-12-02T04:04:58.171Z,930.77
2017-12-02T04:05:26.785Z,930.72
2017-12-02T04:05:55.414Z,930.78
2017-12-02T04:06:24.048Z,930.74
2017-12-02T04:06:52.710Z,930.74
2017-12-02T04:07:21.319Z,930.7
2017-12-02T04:07:49.845Z,930.77
2017-12-02T04:08:18.533Z,930.77
2017-12-02T04:08:47.120Z,930.71
2017-12-02T04:09:15.512Z,930.72
2017-12-02T04:09:44.139Z,930.72
2017-12-02T04:10:12.630Z,930.71
2017-12-02T04:10:41.136Z,930.71
2017-12-02T04:11:09.671Z,930.71
2017-12-02T04:11:38.237Z,930.7
2017-12-02T04:12:06.856Z,930.68
2017-12-02T04:12:35.352Z,930.7
2017-12-02T04:13:03.949Z,930.69
2017-12-02T04:13:32.568Z,930.68
2017-12-02T04:14:01.081Z,930.68
2017-12-02T04:14:29.549Z,930.65
2017-12-02T04:14:58.099Z,930.68
2017-12-02T04:15:26.731Z,930.66
2017-12-02T04:15:55.242Z,930.66
2017-12-02T04:16:23.747Z,930.68
2017-12-02T04:16:52.245Z,930.68
2017-12-02T04:17:20.856Z,930.69
2017-12-02T04:17:49.488Z,930.67
2017-12-02T04:18:17.981Z,930.66
2017-12-02T04:18:46.500Z,930.66
2017-12-02T04:19:15.106Z,930.68
2017-12-02T04:19:43.693Z,930.68
2017-12-02T04:20:12.209Z,930.66
2017-12-02T04:20:40.727Z,930.63
2017-12-02T04:21:09.321Z,930.67
2017-12-02T04:21:37.733Z,930.59
2017-12-02T04:22:06.228Z,930.62
2017-12-02T04:22:34.645Z,930.62
2017-12-02T04:23:03.264Z,930.6
2017-12-02T04:23:32.024Z,930.59
2017-12-02T04:24:00.518Z,930.57
2017-12-02T04:24:29.132Z,930.59
2017-12-02T04:24:57.747Z,930.57
2017-12-02T04:25:26.126Z,930.59
2017-12-02T04:25:54.727Z,930.58
2017-12-02T04:26:23.262Z,930.56
2017-12-02T04:26:51.854Z,930.6
2017-12-02T04:27:20.458Z,930.6
2017-12-02T04:27:49.054Z,930.61
2017-12-02T04:28:17.667Z,930.64
2017-12-02T04:28:46.224Z,930.59
2017-12-02T04:29:14.811Z,930.63
2017-12-02T04:29:43.442Z,930.66
2017-12-02T04:30:11.626Z,930.63
2017-12-02T04:30:40.147Z,930.66
2017-12-02T04:31:08.756Z,930.64
2017-12-02T04:31:37.356Z,930.63
2017-12-02T04:32:05.765Z,930.63
2017-12-02T04:32:34.387Z,930.62
2017-12-02T04:33:02.966Z,930.62
2017-12-02T04:33:31.562Z,930.63
2017-12-02T04:34:00.055Z,930.61
2017-12-02T04:34:28.658Z,930.59
2017-12-02T04:34:57.262Z,930.61
2017-12-02T04:35:25.888Z,930.59
2017-12-02T04:35:54.416Z,930.61
2017-12-02T04:36:22.909Z,930.63
2017-12-02T04:36:51.437Z,930.62
2017-12-02T04:37:20.070Z,930.59
2017-12-02T04:37:48.679Z,930.57
2017-12-02T04:38:17.284Z,930.6
2017-12-02T04:38:46.036Z,930.56
2017-12-02T04:39:14.641Z,930.59
2017-12-02T04:39:43.210Z,930.57
2017-12-02T04:40:11.850Z,930.54
2017-12-02T04:40:40.394Z,930.55
2017-12-02T04:41:08.920Z,930.59
2017-12-02T04:41:37.552Z,930.57
2017-12-02T04:42:06.081Z,930.57
2017-12-02T04:42:34.575Z,930.53
2017-12-02T04:43:03.085Z,930.57
2017-12-02T04:43:31.674Z,930.54
2017-12-02T04:44:00.425Z,930.56
2017-12-02T04:44:28.908Z,930.59
2017-12-02T04:44:57.318Z,930.55
2017-12-02T04:45:25.831Z,930.54
2017-12-02T04:45:54.454Z,930.54
2017-12-02T04:46:23.064Z,930.58
2017-12-02T04:46:51.684Z,930.53
2017-12-02T04:47:20.318Z,930.49
2017-12-02T04:47:48.908Z,930.53
2017-12-02T04:48:17.514Z,930.51
2017-12-02T04:48:46.100Z,930.51
2017-12-02T04:49:14.600Z,930.51
2017-12-02T04:49:43.205Z,930.48
2017-12-02T04:50:11.621Z,930.53
2017-12-02T04:50:40.112Z,930.49
2017-12-02T04:51:08.632Z,930.46
2017-12-02T04:51:37.227Z,930.49
2017-12-02T04:52:05.749Z,930.5
2017-12-02T04:52:34.360Z,930.47
2017-12-02T04:53:02.949Z,930.49
2017-12-02T04:53:31.561Z,930.48
2017-12-02T04:54:00.236Z,930.45
2017-12-02T04:54:28.750Z,930.48
2017-12-02T04:54:57.134Z,930.44
2017-12-02T04:55:25.639Z,930.43
2017-12-02T04:55:54.225Z,930.44
2017-12-02T04:56:22.638Z,930.46
2017-12-02T04:56:51.147Z,930.42
2017-12-02T04:57:19.649Z,930.42
2017-12-02T04:57:48.132Z,930.4
2017-12-02T04:58:16.720Z,930.39
2017-12-02T04:58:45.394Z,930.38
2017-12-02T04:59:13.888Z,930.38
2017-12-02T04:59:42.486Z,930.4
2017-12-02T05:00:11.093Z,930.38
2017-12-02T05:00:39.650Z,930.38
2017-12-02T05:01:08.193Z,930.4
2017-12-02T05:01:36.774Z,930.39
2017-12-02T05:02:05.268Z,930.39
2017-12-02T05:02:33.877Z,930.4
2017-12-02T05:03:02.472Z,930.39
2017-12-02T05:03:30.979Z,930.35
2017-12-02T05:03:59.476Z,930.39
2017-12-02T05:04:27.874Z,930.34
2017-12-02T05:04:56.468Z,930.31
2017-12-02T05:05:24.967Z,930.34
2017-12-02T05:05:53.603Z,930.36
2017-12-02T05:06:22.232Z,930.34
2017-12-02T05:06:50.883Z,930.34
2017-12-02T05:07:19.382Z,930.3
2017-12-02T05:07:47.980Z,930.38
2017-12-02T05:08:16.482Z,930.32
2017-12-02T05:08:44.970Z,930.34
2017-12-02T05:09:13.567Z,930.39
2017-12-02T05:09:42.185Z,930.39
2017-12-02T05:10:10.717Z,930.35
2017-12-02T05:10:39.334Z,930.36
2017-12-02T05:11:07.951Z,930.38
2017-12-02T05:11:36.435Z,930.35
2017-12-02T05:12:04.944Z,930.33
2017-12-02T05:12:33.568Z,930.39
2017-12-02T05:13:02.066Z,930.39
2017-12-02T05:13:30.584Z,930.32
2017-12-02T05:13:59.179Z,930.41
2017-12-02T05:14:27.669Z,930.39
2017-12-02T05:14:56.279Z,930.38
2017-12-02T05:15:24.806Z,930.39
2017-12-02T05:15:53.461Z,930.41
2017-12-02T05:16:21.966Z,930.39
2017-12-02T05:16:50.577Z,930.38
2017-12-02T05:17:19.170Z,930.39
2017-12-02T05:17:47.688Z,930.36
2017-12-02T05:18:16.244Z,930.39
2017-12-02T05:18:44.732Z,930.32
2017-12-02T05:19:13.359Z,930.39
2017-12-02T05:19:41.982Z,930.36
2017-12-02T05:20:10.531Z,930.38
2017-12-02T05:20:39.156Z,930.37
2017-12-02T05:21:07.743Z,930.35
2017-12-02T05:21:36.214Z,930.36
2017-12-02T05:22:04.785Z,930.35
2017-12-02T05:22:33.422Z,930.37
2017-12-02T05:23:02.039Z,930.36
2017-12-02T05:23:30.616Z,930.36
2017-12-02T05:23:59.307Z,930.39
2017-12-02T05:24:27.928Z,930.38
2017-12-02T05:24:56.516Z,930.37
2017-12-02T05:25:25.118Z,930.42
2017-12-02T05:25:53.724Z,930.36
2017-12-02T05:26:22.323Z,930.39
2017-12-02T05:26:50.920Z,930.39
2017-12-02T05:27:19.529Z,930.39
2017-12-02T05:27:47.903Z,930.38
2017-12-02T05:28:16.418Z,930.36
2017-12-02T05:28:45.014Z,930.37
2017-12-02T05:29:13.598Z,930.36
2017-12-02T05:29:42.074Z,930.37
2017-12-02T05:30:10.598Z,930.32
2017-12-02T05:30:39.177Z,930.34
2017-12-02T05:31:07.792Z,930.3
2017-12-02T05:31:36.375Z,930.31
2017-12-02T05:32:04.880Z,930.33
2017-12-02T05:32:33.496Z,930.35
2017-12-02T05:33:02.095Z,930.34
2017-12-02T05:33:30.685Z,930.34
2017-12-02T05:33:59.191Z,930.34
2017-12-02T05:34:27.676Z,930.36
2017-12-02T05:34:56.252Z,930.34
2017-12-02T05:35:24.754Z,930.38
2017-12-02T05:35:53.407Z,930.36
2017-12-02T05:36:21.962Z,930.35
2017-12-02T05:36:50.443Z,930.27
2017-12-02T05:37:18.842Z,930.35
2017-12-02T05:37:47.470Z,930.38
2017-12-02T05:38:16.005Z,930.35
2017-12-02T05:38:44.489Z,930.3
2017-12-02T05:39:13.246Z,930.32
2017-12-02T05:39:41.849Z,930.33
2017-12-02T05:40:10.373Z,930.31
2017-12-02T05:40:39.008Z,930.32
2017-12-02T05:41:07.596Z,930.29
2017-12-02T05:41:36.222Z,930.34
2017-12-02T05:42:04.842Z,930.31
2017-12-02T05:42:33.434Z,930.3
2017-12-02T05:43:02.082Z,930.31
2017-12-02T05:43:30.683Z,930.33
2017-12-02T05:43:59.256Z,930.31
2017-12-02T05:44:27.766Z,930.32
2017-12-02T05:44:56.376Z,930.31
2017-12-02T05:45:24.941Z,930.28
2017-12-02T05:45:53.524Z,930.28
2017-12-02T05:46:22.033Z,930.29
2017-12-02T05:46:50.645Z,930.3
2017-12-02T05:47:20.037Z,930.27
2017-12-02T05:47:48.641Z,930.29
2017-12-02T05:48:17.217Z,930.29
2017-12-02T05:48:45.790Z,930.3
2017-12-02T05:49:14.398Z,930.23
2017-12-02T05:49:42.957Z,930.3
2017-12-02T05:50:11.540Z,930.33
2017-12-02T05:50:40.089Z,930.24
2017-12-02T05:51:08.580Z,930.23
2017-12-02T05:51:37.076Z,930.29
2017-12-02T05:52:05.683Z,930.29
2017-12-02T05:52:34.288Z,930.32
2017-12-02T05:53:02.915Z,930.35
2017-12-02T05:53:31.427Z,930.32
2017-12-02T05:54:00.026Z,930.35
2017-12-02T05:54:28.795Z,930.35
2017-12-02T05:54:57.384Z,930.34
2017-12-02T05:55:25.963Z,930.34
2017-12-02T05:55:54.541Z,930.34